sensor_id;sensor_type;location;lat;lon;timestamp;P1;durP1;ratioP1;P2;durP2;ratioP2
33505;SDS011;19843;51.040;13.782;2022-09-14T00:00:47;0.50;;;0.50;;
33505;SDS011;19843;51.040;13.782;2022-09-14T00:03:36;0.50;;;0.50;;
33505;SDS011;19843;51.040;13.782;2022-09-14T00:06:04;0.50;;;0.50;;
33505;SDS011;19843;51.040;13.782;2022-09-14T00:08:33;0.60;;;0.60;;
33505;SDS011;19843;51.040;13.782;2022-09-14T00:11:03;0.60;;;0.60;;
33505;SDS011;19843;51.040;13.782;2022-09-14T00:13:31;0.50;;;0.50;;
33505;SDS011;19843;51.040;13.782;2022-09-14T00:16:01;0.60;;;0.60;;
33505;SDS011;19843;51.040;13.782;2022-09-14T00:18:30;0.70;;;0.70;;
33505;SDS011;19843;51.040;13.782;2022-09-14T00:21:00;0.85;;;0.85;;
33505;SDS011;19843;51.040;13.782;2022-09-14T00:23:28;0.90;;;0.90;;
33505;SDS011;19843;51.040;13.782;2022-09-14T00:26:00;0.90;;;0.90;;
33505;SDS011;19843;51.040;13.782;2022-09-14T00:28:28;0.98;;;0.98;;
33505;SDS011;19843;51.040;13.782;2022-09-14T00:30:56;0.88;;;0.88;;
33505;SDS011;19843;51.040;13.782;2022-09-14T00:33:23;0.95;;;0.95;;
33505;SDS011;19843;51.040;13.782;2022-09-14T00:35:51;0.90;;;0.90;;
33505;SDS011;19843;51.040;13.782;2022-09-14T00:38:19;0.95;;;0.95;;
33505;SDS011;19843;51.040;13.782;2022-09-14T00:40:54;1.00;;;1.00;;
33505;SDS011;19843;51.040;13.782;2022-09-14T00:43:24;0.88;;;0.88;;
33505;SDS011;19843;51.040;13.782;2022-09-14T00:45:52;0.70;;;0.70;;
33505;SDS011;19843;51.040;13.782;2022-09-14T00:48:19;0.70;;;0.70;;
33505;SDS011;19843;51.040;13.782;2022-09-14T00:50:51;0.55;;;0.55;;
33505;SDS011;19843;51.040;13.782;2022-09-14T00:53:21;0.70;;;0.70;;
33505;SDS011;19843;51.040;13.782;2022-09-14T00:55:49;0.60;;;0.60;;
33505;SDS011;19843;51.040;13.782;2022-09-14T00:58:19;0.50;;;0.50;;
33505;SDS011;19843;51.040;13.782;2022-09-14T01:00:47;0.40;;;0.40;;
33505;SDS011;19843;51.040;13.782;2022-09-14T01:03:14;0.50;;;0.50;;
33505;SDS011;19843;51.040;13.782;2022-09-14T01:05:49;0.50;;;0.50;;
33505;SDS011;19843;51.040;13.782;2022-09-14T01:08:41;0.70;;;0.70;;
33505;SDS011;19843;51.040;13.782;2022-09-14T01:11:22;0.50;;;0.50;;
33505;SDS011;19843;51.040;13.782;2022-09-14T01:14:05;0.60;;;0.60;;
33505;SDS011;19843;51.040;13.782;2022-09-14T01:16:41;0.50;;;0.50;;
33505;SDS011;19843;51.040;13.782;2022-09-14T01:19:18;0.60;;;0.60;;
33505;SDS011;19843;51.040;13.782;2022-09-14T01:21:51;0.63;;;0.63;;
33505;SDS011;19843;51.040;13.782;2022-09-14T01:24:25;0.65;;;0.65;;
33505;SDS011;19843;51.040;13.782;2022-09-14T01:27:11;0.50;;;0.50;;
33505;SDS011;19843;51.040;13.782;2022-09-14T01:29:48;0.50;;;0.50;;
33505;SDS011;19843;51.040;13.782;2022-09-14T01:32:18;0.43;;;0.43;;
33505;SDS011;19843;51.040;13.782;2022-09-14T01:34:52;0.50;;;0.50;;
33505;SDS011;19843;51.040;13.782;2022-09-14T01:37:26;0.50;;;0.50;;
33505;SDS011;19843;51.040;13.782;2022-09-14T01:39:58;0.73;;;0.70;;
33505;SDS011;19843;51.040;13.782;2022-09-14T01:42:31;0.80;;;0.80;;
33505;SDS011;19843;51.040;13.782;2022-09-14T01:45:00;0.80;;;0.80;;
33505;SDS011;19843;51.040;13.782;2022-09-14T01:47:35;0.80;;;0.80;;
33505;SDS011;19843;51.040;13.782;2022-09-14T01:52:38;0.70;;;0.70;;
33505;SDS011;19843;51.040;13.782;2022-09-14T01:55:10;0.60;;;0.60;;
33505;SDS011;19843;51.040;13.782;2022-09-14T01:57:48;0.60;;;0.60;;
33505;SDS011;19843;51.040;13.782;2022-09-14T02:00:19;0.60;;;0.60;;
33505;SDS011;19843;51.040;13.782;2022-09-14T02:02:49;0.70;;;0.70;;
33505;SDS011;19843;51.040;13.782;2022-09-14T02:05:22;0.80;;;0.80;;
33505;SDS011;19843;51.040;13.782;2022-09-14T02:07:54;0.80;;;0.80;;
33505;SDS011;19843;51.040;13.782;2022-09-14T02:10:23;0.80;;;0.80;;
33505;SDS011;19843;51.040;13.782;2022-09-14T02:12:52;0.80;;;0.80;;
33505;SDS011;19843;51.040;13.782;2022-09-14T02:15:21;0.80;;;0.80;;
33505;SDS011;19843;51.040;13.782;2022-09-14T02:17:51;0.80;;;0.80;;
33505;SDS011;19843;51.040;13.782;2022-09-14T02:20:21;0.80;;;0.80;;
33505;SDS011;19843;51.040;13.782;2022-09-14T02:22:50;0.70;;;0.70;;
33505;SDS011;19843;51.040;13.782;2022-09-14T02:25:18;0.82;;;0.82;;
33505;SDS011;19843;51.040;13.782;2022-09-14T02:27:46;0.70;;;0.70;;
33505;SDS011;19843;51.040;13.782;2022-09-14T02:30:15;0.70;;;0.70;;
33505;SDS011;19843;51.040;13.782;2022-09-14T02:32:48;0.60;;;0.60;;
33505;SDS011;19843;51.040;13.782;2022-09-14T02:35:29;0.70;;;0.70;;
33505;SDS011;19843;51.040;13.782;2022-09-14T02:38:05;0.70;;;0.70;;
33505;SDS011;19843;51.040;13.782;2022-09-14T02:40:40;0.80;;;0.80;;
33505;SDS011;19843;51.040;13.782;2022-09-14T02:43:16;0.60;;;0.60;;
33505;SDS011;19843;51.040;13.782;2022-09-14T02:45:54;0.70;;;0.70;;
33505;SDS011;19843;51.040;13.782;2022-09-14T02:48:31;0.60;;;0.60;;
33505;SDS011;19843;51.040;13.782;2022-09-14T02:51:06;0.70;;;0.70;;
33505;SDS011;19843;51.040;13.782;2022-09-14T02:53:38;1.02;;;0.70;;
33505;SDS011;19843;51.040;13.782;2022-09-14T02:56:09;0.70;;;0.70;;
33505;SDS011;19843;51.040;13.782;2022-09-14T02:58:39;0.60;;;0.60;;
33505;SDS011;19843;51.040;13.782;2022-09-14T03:01:09;0.68;;;0.68;;
33505;SDS011;19843;51.040;13.782;2022-09-14T03:03:39;0.70;;;0.70;;
33505;SDS011;19843;51.040;13.782;2022-09-14T03:06:06;0.50;;;0.50;;
33505;SDS011;19843;51.040;13.782;2022-09-14T03:08:34;0.40;;;0.40;;
33505;SDS011;19843;51.040;13.782;2022-09-14T03:11:02;0.50;;;0.50;;
33505;SDS011;19843;51.040;13.782;2022-09-14T03:13:31;0.50;;;0.50;;
33505;SDS011;19843;51.040;13.782;2022-09-14T03:16:02;0.40;;;0.40;;
33505;SDS011;19843;51.040;13.782;2022-09-14T03:18:32;0.40;;;0.40;;
33505;SDS011;19843;51.040;13.782;2022-09-14T03:21:03;0.50;;;0.50;;
33505;SDS011;19843;51.040;13.782;2022-09-14T03:23:34;0.40;;;0.40;;
33505;SDS011;19843;51.040;13.782;2022-09-14T03:26:05;1.15;;;1.13;;
33505;SDS011;19843;51.040;13.782;2022-09-14T03:28:33;0.40;;;0.40;;
33505;SDS011;19843;51.040;13.782;2022-09-14T03:31:01;0.50;;;0.50;;
33505;SDS011;19843;51.040;13.782;2022-09-14T03:33:30;0.50;;;0.50;;
33505;SDS011;19843;51.040;13.782;2022-09-14T03:35:59;0.50;;;0.50;;
33505;SDS011;19843;51.040;13.782;2022-09-14T03:38:27;0.40;;;0.40;;
33505;SDS011;19843;51.040;13.782;2022-09-14T03:40:55;0.40;;;0.40;;
33505;SDS011;19843;51.040;13.782;2022-09-14T03:43:23;0.40;;;0.40;;
33505;SDS011;19843;51.040;13.782;2022-09-14T03:45:51;0.60;;;0.60;;
33505;SDS011;19843;51.040;13.782;2022-09-14T03:48:18;0.77;;;0.77;;
33505;SDS011;19843;51.040;13.782;2022-09-14T03:50:46;0.80;;;0.80;;
33505;SDS011;19843;51.040;13.782;2022-09-14T03:53:14;0.80;;;0.80;;
33505;SDS011;19843;51.040;13.782;2022-09-14T03:55:42;0.70;;;0.70;;
33505;SDS011;19843;51.040;13.782;2022-09-14T03:58:09;0.70;;;0.70;;
33505;SDS011;19843;51.040;13.782;2022-09-14T04:00:38;0.70;;;0.70;;
33505;SDS011;19843;51.040;13.782;2022-09-14T04:03:06;0.60;;;0.60;;
33505;SDS011;19843;51.040;13.782;2022-09-14T04:05:33;0.57;;;0.57;;
33505;SDS011;19843;51.040;13.782;2022-09-14T04:08:01;0.60;;;0.60;;
33505;SDS011;19843;51.040;13.782;2022-09-14T04:10:31;0.70;;;0.70;;
33505;SDS011;19843;51.040;13.782;2022-09-14T04:12:59;0.60;;;0.60;;
33505;SDS011;19843;51.040;13.782;2022-09-14T04:15:27;0.50;;;0.50;;
33505;SDS011;19843;51.040;13.782;2022-09-14T04:17:54;0.50;;;0.50;;
33505;SDS011;19843;51.040;13.782;2022-09-14T04:20:22;0.50;;;0.50;;
33505;SDS011;19843;51.040;13.782;2022-09-14T04:22:49;0.60;;;0.60;;
33505;SDS011;19843;51.040;13.782;2022-09-14T04:25:17;0.55;;;0.55;;
33505;SDS011;19843;51.040;13.782;2022-09-14T04:27:46;0.50;;;0.50;;
33505;SDS011;19843;51.040;13.782;2022-09-14T04:30:33;0.50;;;0.50;;
33505;SDS011;19843;51.040;13.782;2022-09-14T04:33:01;0.70;;;0.70;;
33505;SDS011;19843;51.040;13.782;2022-09-14T04:35:28;0.55;;;0.55;;
33505;SDS011;19843;51.040;13.782;2022-09-14T04:37:56;0.60;;;0.60;;
33505;SDS011;19843;51.040;13.782;2022-09-14T04:40:23;0.80;;;0.80;;
33505;SDS011;19843;51.040;13.782;2022-09-14T04:42:55;0.60;;;0.60;;
33505;SDS011;19843;51.040;13.782;2022-09-14T04:45:22;0.70;;;0.70;;
33505;SDS011;19843;51.040;13.782;2022-09-14T04:47:52;0.60;;;0.60;;
33505;SDS011;19843;51.040;13.782;2022-09-14T04:50:19;0.57;;;0.57;;
33505;SDS011;19843;51.040;13.782;2022-09-14T04:52:47;0.45;;;0.45;;
33505;SDS011;19843;51.040;13.782;2022-09-14T04:55:14;0.57;;;0.57;;
33505;SDS011;19843;51.040;13.782;2022-09-14T04:57:42;0.60;;;0.60;;
33505;SDS011;19843;51.040;13.782;2022-09-14T05:00:11;0.75;;;0.75;;
33505;SDS011;19843;51.040;13.782;2022-09-14T05:02:39;0.55;;;0.55;;
33505;SDS011;19843;51.040;13.782;2022-09-14T05:05:07;0.60;;;0.60;;
33505;SDS011;19843;51.040;13.782;2022-09-14T05:07:35;0.60;;;0.60;;
33505;SDS011;19843;51.040;13.782;2022-09-14T05:10:02;0.57;;;0.57;;
33505;SDS011;19843;51.040;13.782;2022-09-14T05:12:30;0.65;;;0.63;;
33505;SDS011;19843;51.040;13.782;2022-09-14T05:14:58;0.70;;;0.70;;
33505;SDS011;19843;51.040;13.782;2022-09-14T05:17:26;0.50;;;0.50;;
33505;SDS011;19843;51.040;13.782;2022-09-14T05:19:54;0.55;;;0.55;;
33505;SDS011;19843;51.040;13.782;2022-09-14T05:22:21;0.60;;;0.60;;
33505;SDS011;19843;51.040;13.782;2022-09-14T05:24:49;0.55;;;0.55;;
33505;SDS011;19843;51.040;13.782;2022-09-14T05:27:16;0.73;;;0.60;;
33505;SDS011;19843;51.040;13.782;2022-09-14T05:29:43;0.50;;;0.50;;
33505;SDS011;19843;51.040;13.782;2022-09-14T05:32:11;0.50;;;0.50;;
33505;SDS011;19843;51.040;13.782;2022-09-14T05:34:40;0.50;;;0.50;;
33505;SDS011;19843;51.040;13.782;2022-09-14T05:37:09;0.47;;;0.47;;
33505;SDS011;19843;51.040;13.782;2022-09-14T05:39:37;0.47;;;0.47;;
33505;SDS011;19843;51.040;13.782;2022-09-14T05:42:04;0.60;;;0.60;;
33505;SDS011;19843;51.040;13.782;2022-09-14T05:44:32;0.40;;;0.40;;
33505;SDS011;19843;51.040;13.782;2022-09-14T05:46:59;0.47;;;0.47;;
33505;SDS011;19843;51.040;13.782;2022-09-14T05:49:27;0.50;;;0.50;;
33505;SDS011;19843;51.040;13.782;2022-09-14T05:51:56;0.50;;;0.50;;
33505;SDS011;19843;51.040;13.782;2022-09-14T05:54:23;0.50;;;0.50;;
33505;SDS011;19843;51.040;13.782;2022-09-14T05:56:51;0.50;;;0.50;;
33505;SDS011;19843;51.040;13.782;2022-09-14T05:59:18;0.60;;;0.60;;
33505;SDS011;19843;51.040;13.782;2022-09-14T06:01:46;0.50;;;0.50;;
33505;SDS011;19843;51.040;13.782;2022-09-14T06:04:13;0.60;;;0.60;;
33505;SDS011;19843;51.040;13.782;2022-09-14T06:06:40;0.75;;;0.52;;
33505;SDS011;19843;51.040;13.782;2022-09-14T06:09:29;0.50;;;0.50;;
33505;SDS011;19843;51.040;13.782;2022-09-14T06:11:58;0.60;;;0.60;;
33505;SDS011;19843;51.040;13.782;2022-09-14T06:14:25;0.52;;;0.52;;
33505;SDS011;19843;51.040;13.782;2022-09-14T06:16:53;0.50;;;0.50;;
33505;SDS011;19843;51.040;13.782;2022-09-14T06:19:20;0.52;;;0.52;;
33505;SDS011;19843;51.040;13.782;2022-09-14T06:21:48;0.50;;;0.50;;
33505;SDS011;19843;51.040;13.782;2022-09-14T06:24:15;0.50;;;0.50;;
33505;SDS011;19843;51.040;13.782;2022-09-14T06:26:44;0.47;;;0.47;;
33505;SDS011;19843;51.040;13.782;2022-09-14T06:29:11;0.52;;;0.52;;
33505;SDS011;19843;51.040;13.782;2022-09-14T06:31:39;0.50;;;0.50;;
33505;SDS011;19843;51.040;13.782;2022-09-14T06:34:07;0.50;;;0.50;;
33505;SDS011;19843;51.040;13.782;2022-09-14T06:36:35;0.40;;;0.40;;
33505;SDS011;19843;51.040;13.782;2022-09-14T06:39:02;0.75;;;0.40;;
33505;SDS011;19843;51.040;13.782;2022-09-14T06:41:30;0.40;;;0.40;;
33505;SDS011;19843;51.040;13.782;2022-09-14T06:43:59;0.40;;;0.40;;
33505;SDS011;19843;51.040;13.782;2022-09-14T06:46:28;0.50;;;0.50;;
33505;SDS011;19843;51.040;13.782;2022-09-14T06:48:58;0.50;;;0.50;;
33505;SDS011;19843;51.040;13.782;2022-09-14T06:51:28;0.40;;;0.40;;
33505;SDS011;19843;51.040;13.782;2022-09-14T06:53:57;0.50;;;0.50;;
33505;SDS011;19843;51.040;13.782;2022-09-14T06:56:25;0.40;;;0.40;;
33505;SDS011;19843;51.040;13.782;2022-09-14T06:58:53;1.55;;;0.60;;
33505;SDS011;19843;51.040;13.782;2022-09-14T07:01:25;0.50;;;0.50;;
33505;SDS011;19843;51.040;13.782;2022-09-14T07:03:55;0.55;;;0.50;;
33505;SDS011;19843;51.040;13.782;2022-09-14T07:06:24;0.70;;;0.60;;
33505;SDS011;19843;51.040;13.782;2022-09-14T07:08:52;0.60;;;0.50;;
33505;SDS011;19843;51.040;13.782;2022-09-14T07:11:21;0.50;;;0.50;;
33505;SDS011;19843;51.040;13.782;2022-09-14T07:13:51;0.70;;;0.70;;
33505;SDS011;19843;51.040;13.782;2022-09-14T07:16:20;0.60;;;0.60;;
33505;SDS011;19843;51.040;13.782;2022-09-14T07:18:52;1.27;;;0.50;;
33505;SDS011;19843;51.040;13.782;2022-09-14T07:21:20;0.60;;;0.60;;
33505;SDS011;19843;51.040;13.782;2022-09-14T07:23:48;0.70;;;0.70;;
33505;SDS011;19843;51.040;13.782;2022-09-14T07:26:16;0.60;;;0.60;;
33505;SDS011;19843;51.040;13.782;2022-09-14T07:28:47;0.60;;;0.60;;
33505;SDS011;19843;51.040;13.782;2022-09-14T07:31:17;0.70;;;0.70;;
33505;SDS011;19843;51.040;13.782;2022-09-14T07:33:47;0.70;;;0.70;;
33505;SDS011;19843;51.040;13.782;2022-09-14T07:36:16;0.60;;;0.60;;
33505;SDS011;19843;51.040;13.782;2022-09-14T07:38:44;0.60;;;0.60;;
33505;SDS011;19843;51.040;13.782;2022-09-14T07:41:18;0.73;;;0.60;;
33505;SDS011;19843;51.040;13.782;2022-09-14T07:43:47;0.60;;;0.60;;
33505;SDS011;19843;51.040;13.782;2022-09-14T07:46:15;1.33;;;0.50;;
33505;SDS011;19843;51.040;13.782;2022-09-14T07:48:42;0.68;;;0.50;;
33505;SDS011;19843;51.040;13.782;2022-09-14T07:51:10;0.50;;;0.50;;
33505;SDS011;19843;51.040;13.782;2022-09-14T07:53:39;0.75;;;0.55;;
33505;SDS011;19843;51.040;13.782;2022-09-14T07:56:08;0.50;;;0.50;;
33505;SDS011;19843;51.040;13.782;2022-09-14T07:58:37;0.60;;;0.60;;
33505;SDS011;19843;51.040;13.782;2022-09-14T08:01:05;0.63;;;0.60;;
33505;SDS011;19843;51.040;13.782;2022-09-14T08:03:34;0.45;;;0.45;;
33505;SDS011;19843;51.040;13.782;2022-09-14T08:06:02;0.50;;;0.50;;
33505;SDS011;19843;51.040;13.782;2022-09-14T08:08:32;0.55;;;0.55;;
33505;SDS011;19843;51.040;13.782;2022-09-14T08:11:04;0.55;;;0.52;;
33505;SDS011;19843;51.040;13.782;2022-09-14T08:13:32;0.55;;;0.55;;
33505;SDS011;19843;51.040;13.782;2022-09-14T08:16:00;0.50;;;0.50;;
33505;SDS011;19843;51.040;13.782;2022-09-14T08:18:28;0.50;;;0.50;;
33505;SDS011;19843;51.040;13.782;2022-09-14T08:20:56;0.60;;;0.60;;
33505;SDS011;19843;51.040;13.782;2022-09-14T08:23:24;0.60;;;0.60;;
33505;SDS011;19843;51.040;13.782;2022-09-14T08:25:51;0.50;;;0.50;;
33505;SDS011;19843;51.040;13.782;2022-09-14T08:28:20;0.60;;;0.60;;
33505;SDS011;19843;51.040;13.782;2022-09-14T08:30:47;0.40;;;0.40;;
33505;SDS011;19843;51.040;13.782;2022-09-14T08:33:15;0.50;;;0.50;;
33505;SDS011;19843;51.040;13.782;2022-09-14T08:35:42;0.55;;;0.55;;
33505;SDS011;19843;51.040;13.782;2022-09-14T08:38:25;0.40;;;0.40;;
33505;SDS011;19843;51.040;13.782;2022-09-14T08:40:53;0.50;;;0.50;;
33505;SDS011;19843;51.040;13.782;2022-09-14T08:43:23;0.40;;;0.40;;
33505;SDS011;19843;51.040;13.782;2022-09-14T08:45:54;0.40;;;0.40;;
33505;SDS011;19843;51.040;13.782;2022-09-14T08:48:30;0.40;;;0.40;;
33505;SDS011;19843;51.040;13.782;2022-09-14T08:51:01;0.30;;;0.30;;
33505;SDS011;19843;51.040;13.782;2022-09-14T08:53:30;0.50;;;0.50;;
33505;SDS011;19843;51.040;13.782;2022-09-14T08:56:02;0.50;;;0.50;;
33505;SDS011;19843;51.040;13.782;2022-09-14T08:58:40;0.50;;;0.50;;
33505;SDS011;19843;51.040;13.782;2022-09-14T09:01:19;0.70;;;0.70;;
33505;SDS011;19843;51.040;13.782;2022-09-14T09:04:00;0.63;;;0.63;;
33505;SDS011;19843;51.040;13.782;2022-09-14T09:06:37;0.60;;;0.60;;
33505;SDS011;19843;51.040;13.782;2022-09-14T09:09:14;0.45;;;0.45;;
33505;SDS011;19843;51.040;13.782;2022-09-14T09:11:48;0.40;;;0.40;;
33505;SDS011;19843;51.040;13.782;2022-09-14T09:14:19;0.40;;;0.40;;
33505;SDS011;19843;51.040;13.782;2022-09-14T09:16:50;0.50;;;0.50;;
33505;SDS011;19843;51.040;13.782;2022-09-14T09:19:22;0.40;;;0.40;;
33505;SDS011;19843;51.040;13.782;2022-09-14T09:21:54;0.50;;;0.50;;
33505;SDS011;19843;51.040;13.782;2022-09-14T09:24:24;0.50;;;0.50;;
33505;SDS011;19843;51.040;13.782;2022-09-14T09:27:03;0.60;;;0.60;;
33505;SDS011;19843;51.040;13.782;2022-09-14T09:29:36;0.40;;;0.40;;
33505;SDS011;19843;51.040;13.782;2022-09-14T09:32:04;0.50;;;0.50;;
33505;SDS011;19843;51.040;13.782;2022-09-14T09:34:34;0.50;;;0.50;;
33505;SDS011;19843;51.040;13.782;2022-09-14T09:37:02;0.55;;;0.55;;
33505;SDS011;19843;51.040;13.782;2022-09-14T09:39:30;0.50;;;0.50;;
33505;SDS011;19843;51.040;13.782;2022-09-14T09:41:59;0.50;;;0.50;;
33505;SDS011;19843;51.040;13.782;2022-09-14T09:44:29;0.50;;;0.50;;
33505;SDS011;19843;51.040;13.782;2022-09-14T09:47:18;0.60;;;0.50;;
33505;SDS011;19843;51.040;13.782;2022-09-14T09:49:55;0.50;;;0.50;;
33505;SDS011;19843;51.040;13.782;2022-09-14T09:52:24;0.60;;;0.60;;
33505;SDS011;19843;51.040;13.782;2022-09-14T09:54:53;0.52;;;0.52;;
33505;SDS011;19843;51.040;13.782;2022-09-14T09:57:26;0.60;;;0.60;;
33505;SDS011;19843;51.040;13.782;2022-09-14T10:00:09;0.50;;;0.50;;
33505;SDS011;19843;51.040;13.782;2022-09-14T10:02:45;0.40;;;0.40;;
33505;SDS011;19843;51.040;13.782;2022-09-14T10:05:20;0.40;;;0.40;;
33505;SDS011;19843;51.040;13.782;2022-09-14T10:07:51;0.40;;;0.40;;
33505;SDS011;19843;51.040;13.782;2022-09-14T10:10:23;0.38;;;0.38;;
33505;SDS011;19843;51.040;13.782;2022-09-14T10:12:53;0.60;;;0.60;;
33505;SDS011;19843;51.040;13.782;2022-09-14T10:15:22;0.40;;;0.40;;
33505;SDS011;19843;51.040;13.782;2022-09-14T10:20:35;0.50;;;0.50;;
33505;SDS011;19843;51.040;13.782;2022-09-14T10:23:20;0.60;;;0.60;;
33505;SDS011;19843;51.040;13.782;2022-09-14T10:25:50;0.50;;;0.50;;
33505;SDS011;19843;51.040;13.782;2022-09-14T10:28:20;0.95;;;0.60;;
33505;SDS011;19843;51.040;13.782;2022-09-14T10:30:50;0.70;;;0.70;;
33505;SDS011;19843;51.040;13.782;2022-09-14T10:33:24;0.70;;;0.70;;
33505;SDS011;19843;51.040;13.782;2022-09-14T10:35:53;0.73;;;0.73;;
33505;SDS011;19843;51.040;13.782;2022-09-14T10:38:31;0.63;;;0.63;;
33505;SDS011;19843;51.040;13.782;2022-09-14T10:41:13;0.57;;;0.57;;
33505;SDS011;19843;51.040;13.782;2022-09-14T10:43:55;0.60;;;0.60;;
33505;SDS011;19843;51.040;13.782;2022-09-14T10:46:36;0.60;;;0.60;;
33505;SDS011;19843;51.040;13.782;2022-09-14T10:49:15;0.68;;;0.68;;
33505;SDS011;19843;51.040;13.782;2022-09-14T10:51:58;0.68;;;0.68;;
33505;SDS011;19843;51.040;13.782;2022-09-14T10:54:36;0.60;;;0.50;;
33505;SDS011;19843;51.040;13.782;2022-09-14T10:57:18;0.60;;;0.60;;
33505;SDS011;19843;51.040;13.782;2022-09-14T10:59:58;0.55;;;0.55;;
33505;SDS011;19843;51.040;13.782;2022-09-14T11:02:35;0.70;;;0.70;;
33505;SDS011;19843;51.040;13.782;2022-09-14T11:05:23;0.50;;;0.50;;
33505;SDS011;19843;51.040;13.782;2022-09-14T11:10:49;0.45;;;0.45;;
33505;SDS011;19843;51.040;13.782;2022-09-14T11:13:38;0.70;;;0.70;;
33505;SDS011;19843;51.040;13.782;2022-09-14T11:16:19;0.50;;;0.50;;
33505;SDS011;19843;51.040;13.782;2022-09-14T11:18:57;0.95;;;0.40;;
33505;SDS011;19843;51.040;13.782;2022-09-14T11:21:33;0.43;;;0.43;;
33505;SDS011;19843;51.040;13.782;2022-09-14T11:24:11;0.40;;;0.40;;
33505;SDS011;19843;51.040;13.782;2022-09-14T11:26:44;0.57;;;0.57;;
33505;SDS011;19843;51.040;13.782;2022-09-14T11:29:21;0.40;;;0.40;;
33505;SDS011;19843;51.040;13.782;2022-09-14T11:31:53;0.50;;;0.50;;
33505;SDS011;19843;51.040;13.782;2022-09-14T11:34:46;0.50;;;0.50;;
33505;SDS011;19843;51.040;13.782;2022-09-14T11:37:24;0.50;;;0.50;;
33505;SDS011;19843;51.040;13.782;2022-09-14T11:39:59;0.50;;;0.50;;
33505;SDS011;19843;51.040;13.782;2022-09-14T11:42:32;0.60;;;0.60;;
33505;SDS011;19843;51.040;13.782;2022-09-14T11:45:06;0.80;;;0.80;;
33505;SDS011;19843;51.040;13.782;2022-09-14T11:47:42;0.63;;;0.63;;
33505;SDS011;19843;51.040;13.782;2022-09-14T11:50:16;0.60;;;0.60;;
33505;SDS011;19843;51.040;13.782;2022-09-14T11:52:50;0.43;;;0.43;;
33505;SDS011;19843;51.040;13.782;2022-09-14T11:55:28;0.50;;;0.50;;
33505;SDS011;19843;51.040;13.782;2022-09-14T11:57:56;0.50;;;0.50;;
33505;SDS011;19843;51.040;13.782;2022-09-14T12:00:45;0.50;;;0.50;;
33505;SDS011;19843;51.040;13.782;2022-09-14T12:03:43;0.73;;;0.50;;
33505;SDS011;19843;51.040;13.782;2022-09-14T12:12:29;0.57;;;0.57;;
33505;SDS011;19843;51.040;13.782;2022-09-14T12:15:03;0.50;;;0.50;;
33505;SDS011;19843;51.040;13.782;2022-09-14T12:17:40;0.60;;;0.60;;
33505;SDS011;19843;51.040;13.782;2022-09-14T12:20:24;0.50;;;0.50;;
33505;SDS011;19843;51.040;13.782;2022-09-14T12:23:19;0.55;;;0.55;;
33505;SDS011;19843;51.040;13.782;2022-09-14T12:26:07;0.50;;;0.50;;
33505;SDS011;19843;51.040;13.782;2022-09-14T12:28:52;0.50;;;0.50;;
33505;SDS011;19843;51.040;13.782;2022-09-14T12:31:28;0.70;;;0.70;;
33505;SDS011;19843;51.040;13.782;2022-09-14T12:34:03;1.13;;;0.70;;
33505;SDS011;19843;51.040;13.782;2022-09-14T12:36:59;0.65;;;0.65;;
33505;SDS011;19843;51.040;13.782;2022-09-14T12:39:37;0.88;;;0.88;;
33505;SDS011;19843;51.040;13.782;2022-09-14T12:44:52;0.47;;;0.47;;
33505;SDS011;19843;51.040;13.782;2022-09-14T12:50:24;1.05;;;1.05;;
33505;SDS011;19843;51.040;13.782;2022-09-14T12:53:00;0.68;;;0.68;;
33505;SDS011;19843;51.040;13.782;2022-09-14T12:55:41;0.60;;;0.60;;
33505;SDS011;19843;51.040;13.782;2022-09-14T12:58:17;0.70;;;0.70;;
33505;SDS011;19843;51.040;13.782;2022-09-14T13:00:56;0.75;;;0.75;;
33505;SDS011;19843;51.040;13.782;2022-09-14T13:03:46;0.70;;;0.70;;
33505;SDS011;19843;51.040;13.782;2022-09-14T13:06:18;0.70;;;0.70;;
33505;SDS011;19843;51.040;13.782;2022-09-14T13:08:48;0.90;;;0.90;;
33505;SDS011;19843;51.040;13.782;2022-09-14T13:11:23;0.70;;;0.70;;
33505;SDS011;19843;51.040;13.782;2022-09-14T13:13:56;0.70;;;0.70;;
33505;SDS011;19843;51.040;13.782;2022-09-14T13:16:30;0.60;;;0.60;;
33505;SDS011;19843;51.040;13.782;2022-09-14T13:19:05;0.50;;;0.50;;
33505;SDS011;19843;51.040;13.782;2022-09-14T13:21:44;0.40;;;0.40;;
33505;SDS011;19843;51.040;13.782;2022-09-14T13:24:21;0.50;;;0.50;;
33505;SDS011;19843;51.040;13.782;2022-09-14T13:26:51;0.80;;;0.80;;
33505;SDS011;19843;51.040;13.782;2022-09-14T13:29:22;0.70;;;0.70;;
33505;SDS011;19843;51.040;13.782;2022-09-14T13:31:52;0.63;;;0.63;;
33505;SDS011;19843;51.040;13.782;2022-09-14T13:34:28;0.70;;;0.70;;
33505;SDS011;19843;51.040;13.782;2022-09-14T13:36:58;0.80;;;0.80;;
33505;SDS011;19843;51.040;13.782;2022-09-14T13:39:28;0.70;;;0.70;;
33505;SDS011;19843;51.040;13.782;2022-09-14T13:41:58;0.70;;;0.70;;
33505;SDS011;19843;51.040;13.782;2022-09-14T13:44:29;0.60;;;0.60;;
33505;SDS011;19843;51.040;13.782;2022-09-14T13:47:00;0.90;;;0.90;;
33505;SDS011;19843;51.040;13.782;2022-09-14T13:49:30;1.00;;;1.00;;
33505;SDS011;19843;51.040;13.782;2022-09-14T13:52:16;0.60;;;0.60;;
33505;SDS011;19843;51.040;13.782;2022-09-14T13:54:48;0.60;;;0.60;;
33505;SDS011;19843;51.040;13.782;2022-09-14T13:57:16;0.60;;;0.60;;
33505;SDS011;19843;51.040;13.782;2022-09-14T14:00:14;0.60;;;0.60;;
33505;SDS011;19843;51.040;13.782;2022-09-14T14:02:43;0.55;;;0.55;;
33505;SDS011;19843;51.040;13.782;2022-09-14T14:05:19;0.60;;;0.60;;
33505;SDS011;19843;51.040;13.782;2022-09-14T14:07:49;0.60;;;0.60;;
33505;SDS011;19843;51.040;13.782;2022-09-14T14:10:21;0.60;;;0.60;;
33505;SDS011;19843;51.040;13.782;2022-09-14T14:12:52;0.65;;;0.65;;
33505;SDS011;19843;51.040;13.782;2022-09-14T14:15:32;0.57;;;0.57;;
33505;SDS011;19843;51.040;13.782;2022-09-14T14:21:02;0.70;;;0.70;;
33505;SDS011;19843;51.040;13.782;2022-09-14T14:23:31;0.73;;;0.73;;
33505;SDS011;19843;51.040;13.782;2022-09-14T14:26:06;0.85;;;0.85;;
33505;SDS011;19843;51.040;13.782;2022-09-14T14:28:34;0.70;;;0.70;;
33505;SDS011;19843;51.040;13.782;2022-09-14T14:31:03;0.63;;;0.63;;
33505;SDS011;19843;51.040;13.782;2022-09-14T14:33:34;0.75;;;0.75;;
33505;SDS011;19843;51.040;13.782;2022-09-14T14:36:09;0.60;;;0.60;;
33505;SDS011;19843;51.040;13.782;2022-09-14T14:38:37;0.55;;;0.55;;
33505;SDS011;19843;51.040;13.782;2022-09-14T14:41:05;0.57;;;0.57;;
33505;SDS011;19843;51.040;13.782;2022-09-14T14:43:33;0.63;;;0.63;;
33505;SDS011;19843;51.040;13.782;2022-09-14T14:46:01;0.63;;;0.63;;
33505;SDS011;19843;51.040;13.782;2022-09-14T14:48:34;0.70;;;0.70;;
33505;SDS011;19843;51.040;13.782;2022-09-14T14:51:04;0.73;;;0.73;;
33505;SDS011;19843;51.040;13.782;2022-09-14T14:53:32;0.63;;;0.63;;
33505;SDS011;19843;51.040;13.782;2022-09-14T14:55:59;0.70;;;0.70;;
33505;SDS011;19843;51.040;13.782;2022-09-14T14:58:27;0.60;;;0.60;;
33505;SDS011;19843;51.040;13.782;2022-09-14T15:03:29;0.45;;;0.45;;
33505;SDS011;19843;51.040;13.782;2022-09-14T15:05:59;0.57;;;0.57;;
33505;SDS011;19843;51.040;13.782;2022-09-14T15:08:26;0.73;;;0.73;;
33505;SDS011;19843;51.040;13.782;2022-09-14T15:10:54;0.75;;;0.75;;
33505;SDS011;19843;51.040;13.782;2022-09-14T15:13:22;0.82;;;0.82;;
33505;SDS011;19843;51.040;13.782;2022-09-14T15:15:49;0.82;;;0.82;;
33505;SDS011;19843;51.040;13.782;2022-09-14T15:18:16;0.80;;;0.80;;
33505;SDS011;19843;51.040;13.782;2022-09-14T15:20:44;0.88;;;0.88;;
33505;SDS011;19843;51.040;13.782;2022-09-14T15:23:13;0.95;;;0.95;;
33505;SDS011;19843;51.040;13.782;2022-09-14T15:25:40;1.00;;;1.00;;